Time;durP1;ratioP1;P1;durP2;ratioP2;P2;SDS_P1;SDS_P2;PMS_P1;PMS_P2;Temp;Humidity;BMP_temperature;BMP_pressure;BME280_temperature;BME280_humidity;BME280_pressure;Samples;Min_cycle;Max_cycle;Signal;HPM_P1;HPM_P2
2023/02/19 00:01:58;;;;;;;26.75;8.38;;;;;;;10.94;100.00;101642.50;2602426;36;20041;-57
2023/02/19 00:04:26;;;;;;;27.95;8.48;;;;;;;10.87;100.00;101634.06;2599085;36;20476;-55
2023/02/19 00:06:56;;;;;;;28.95;9.63;;;;;;;10.73;100.00;101636.94;2599939;36;20042;-58
2023/02/19 00:09:24;;;;;;;28.48;9.18;;;;;;;10.79;100.00;101637.34;2602060;36;20038;-54
2023/02/19 00:11:58;;;;;;;32.07;8.67;;;;;;;10.73;100.00;101639.63;2603742;36;20427;-57
2023/02/19 00:14:26;;;;;;;26.58;8.80;;;;;;;10.75;100.00;101638.56;2600038;36;20860;-56
2023/02/19 00:16:55;;;;;;;24.63;9.17;;;;;;;10.73;100.00;101628.88;2600036;36;20488;-57
2023/02/19 00:19:23;;;;;;;32.28;8.80;;;;;;;10.85;100.00;101636.88;2599857;36;20050;-56
2023/02/19 00:21:53;;;;;;;23.10;8.10;;;;;;;10.80;100.00;101636.34;2603858;36;20057;-51
2023/02/19 00:24:22;;;;;;;21.45;8.07;;;;;;;10.84;100.00;101629.75;2601284;31;20061;-54
2023/02/19 00:26:50;;;;;;;20.92;7.72;;;;;;;10.80;100.00;101633.66;2600611;36;20149;-58
2023/02/19 00:29:23;;;;;;;22.07;7.60;;;;;;;10.80;100.00;101647.13;2604923;36;20431;-55
2023/02/19 00:31:52;;;;;;;24.25;8.68;;;;;;;10.87;100.00;101642.97;2601370;31;20038;-55
2023/02/19 00:34:21;;;;;;;20.33;8.25;;;;;;;10.89;100.00;101644.72;2600600;36;20424;-55
2023/02/19 00:36:49;;;;;;;25.88;7.43;;;;;;;10.73;100.00;101643.19;2600506;36;20053;-58
2023/02/19 00:39:20;;;;;;;18.35;6.78;;;;;;;10.82;100.00;101644.31;2601225;36;20042;-55
2023/02/19 00:41:51;;;;;;;20.05;6.60;;;;;;;10.75;100.00;101645.75;2600145;36;20034;-56
2023/02/19 00:44:22;;;;;;;21.95;6.93;;;;;;;10.69;100.00;101641.72;2600899;36;20042;-57
2023/02/19 00:46:51;;;;;;;20.13;6.85;;;;;;;10.61;100.00;101644.97;2604953;36;20443;-56
2023/02/19 00:49:22;;;;;;;20.30;7.05;;;;;;;10.72;100.00;101638.78;2602338;36;20039;-53
2023/02/19 00:51:51;;;;;;;22.00;7.32;;;;;;;10.73;100.00;101645.88;2602823;36;20057;-55
2023/02/19 00:54:21;;;;;;;24.02;7.03;;;;;;;10.64;100.00;101646.59;2613959;36;20027;-56
2023/02/19 00:56:50;;;;;;;19.20;7.28;;;;;;;10.62;100.00;101649.41;2612727;36;20061;-52
2023/02/19 00:59:18;;;;;;;22.80;9.80;;;;;;;10.72;100.00;101657.63;2610634;36;20039;-56
2023/02/19 01:01:49;;;;;;;21.02;7.57;;;;;;;10.73;100.00;101651.25;2612855;36;20039;-55
2023/02/19 01:04:17;;;;;;;19.58;7.20;;;;;;;10.67;100.00;101659.81;2613989;36;20443;-54
2023/02/19 01:06:47;;;;;;;21.43;8.83;;;;;;;10.62;100.00;101656.63;2615568;36;20034;-56
2023/02/19 01:09:16;;;;;;;21.15;8.18;;;;;;;10.57;100.00;101658.78;2613224;36;20443;-52
2023/02/19 01:11:44;;;;;;;21.95;7.97;;;;;;;10.57;100.00;101664.19;2612269;36;20063;-52
2023/02/19 01:14:13;;;;;;;19.70;8.85;;;;;;;10.55;100.00;101658.06;2614709;36;20416;-55
2023/02/19 01:16:41;;;;;;;21.48;9.15;;;;;;;10.46;100.00;101663.16;2615146;36;20042;-56
2023/02/19 01:19:12;;;;;;;13.70;7.35;;;;;;;10.50;100.00;101664.66;2614532;36;20026;-54
2023/02/19 01:21:42;;;;;;;25.58;8.73;;;;;;;10.45;100.00;101661.47;2614910;36;20027;-55
2023/02/19 01:24:10;;;;;;;22.38;9.57;;;;;;;10.47;100.00;101658.66;2615059;36;20597;-53
2023/02/19 01:26:39;;;;;;;22.13;8.90;;;;;;;10.49;100.00;101662.06;2616087;36;20054;-57
2023/02/19 01:29:07;;;;;;;15.10;9.00;;;;;;;10.51;100.00;101666.38;2614576;36;20684;-52
2023/02/19 01:31:36;;;;;;;20.13;8.73;;;;;;;10.49;100.00;101664.75;2614355;36;20047;-56
2023/02/19 01:34:05;;;;;;;16.23;8.00;;;;;;;10.47;100.00;101664.88;2614697;36;20629;-57
2023/02/19 01:36:36;;;;;;;;;;;;;;;10.50;100.00;101667.34;2616502;36;20034;-56
2023/02/19 01:39:07;;;;;;;16.25;7.97;;;;;;;10.47;100.00;101674.81;2615583;36;19950;-58
2023/02/19 01:41:39;;;;;;;20.33;8.63;;;;;;;10.45;100.00;101674.91;2615274;36;20042;-56
2023/02/19 01:44:10;;;;;;;22.35;7.80;;;;;;;10.42;100.00;101672.44;2615273;31;20046;-56
2023/02/19 01:46:40;;;;;;;20.00;8.80;;;;;;;10.45;100.00;101674.91;2616691;36;20038;-57
2023/02/19 01:49:13;;;;;;;20.63;9.35;;;;;;;10.45;100.00;101685.69;2616052;36;20559;-55
2023/02/19 01:51:53;;;;;;;24.98;8.80;;;;;;;10.40;100.00;101671.69;2616454;36;20027;-58
2023/02/19 01:54:24;;;;;;;18.08;8.40;;;;;;;10.49;100.00;101679.06;2616076;36;20038;-56
2023/02/19 01:56:52;;;;;;;15.35;8.02;;;;;;;10.46;100.00;101679.31;2616557;36;20162;-52
2023/02/19 01:59:21;;;;;;;18.23;7.93;;;;;;;10.46;100.00;101673.91;2617015;31;20432;-51
2023/02/19 02:01:50;;;;;;;16.30;7.73;;;;;;;10.38;100.00;101679.03;2617121;36;20443;-53
2023/02/19 02:04:20;;;;;;;19.20;8.10;;;;;;;10.43;100.00;101679.53;2615884;36;20057;-55
2023/02/19 02:06:53;;;;;;;16.30;7.70;;;;;;;10.42;100.00;101683.19;2616568;36;20041;-52
2023/02/19 02:12:06;;;;;;;16.30;8.88;;;;;;;10.36;100.00;101683.66;2616710;31;20023;-56
2023/02/19 02:14:37;;;;;;;19.02;9.32;;;;;;;10.36;100.00;101678.28;2616431;36;20591;-54
2023/02/19 02:17:13;;;;;;;17.83;8.30;;;;;;;10.31;100.00;101680.44;2617056;36;20435;-56
2023/02/19 02:20:08;;;;;;;19.85;9.60;;;;;;;10.34;100.00;101686.47;2616384;36;20547;-57
2023/02/19 02:22:44;;;;;;;18.90;9.10;;;;;;;10.18;100.00;101686.72;2616055;36;20042;-55
2023/02/19 02:25:41;;;;;;;18.45;8.55;;;;;;;10.16;100.00;101682.44;2615816;36;20042;-54
2023/02/19 02:28:23;;;;;;;17.42;7.88;;;;;;;10.11;100.00;101680.06;2616616;36;20034;-54
2023/02/19 02:30:57;;;;;;;16.38;8.63;;;;;;;10.06;100.00;101687.63;2616766;36;20030;-57
2023/02/19 02:33:33;;;;;;;18.20;9.60;;;;;;;10.06;100.00;101687.63;2615901;36;20026;-52
2023/02/19 02:36:07;;;;;;;17.65;9.57;;;;;;;10.15;100.00;101686.94;2616729;36;20033;-51
2023/02/19 02:38:39;;;;;;;19.13;9.82;;;;;;;10.15;100.00;101689.63;2617119;36;20431;-52
2023/02/19 02:41:08;;;;;;;21.92;11.00;;;;;;;10.27;100.00;101692.41;2615370;36;20038;-54
2023/02/19 02:43:36;;;;;;;;;;;;;;;10.30;100.00;101697.53;2616297;36;20039;-55
2023/02/19 02:46:08;;;;;;;21.53;9.73;;;;;;;10.21;100.00;101704.47;2616113;31;19947;-54
2023/02/19 02:48:42;;;;;;;16.42;9.68;;;;;;;10.21;100.00;101695.53;2615987;36;20035;-56
2023/02/19 02:51:19;;;;;;;17.23;10.27;;;;;;;10.25;100.00;101707.81;2615310;36;20034;-54
2023/02/19 02:56:33;;;;;;;21.73;10.77;;;;;;;10.21;100.00;101700.94;2605144;31;20034;-56
2023/02/19 02:59:04;;;;;;;21.48;10.95;;;;;;;10.22;100.00;101702.63;2603981;36;20053;-56
2023/02/19 03:04:28;;;;;;;17.27;9.77;;;;;;;10.28;100.00;101708.41;2599845;36;20030;-58
2023/02/19 03:06:58;;;;;;;21.33;10.48;;;;;;;10.25;100.00;101713.19;2602354;31;21202;-56
2023/02/19 03:09:39;;;;;;;19.38;10.35;;;;;;;10.18;100.00;101713.59;2599745;36;20038;-55
2023/02/19 03:20:36;;;;;;;20.77;11.48;;;;;;;10.22;100.00;101724.13;2597970;36;20116;-56
2023/02/19 03:23:04;;;;;;;24.90;11.13;;;;;;;10.15;100.00;101729.97;2597594;36;20045;-52
2023/02/19 03:29:21;;;;;;;18.70;10.68;;;;;;;10.22;100.00;101729.53;2600485;31;20030;-54
2023/02/19 03:31:13;;;;;;;19.35;10.80;;;;;;;10.15;100.00;101724.59;2603518;36;20057;-55
2023/02/19 03:33:46;;;;;;;19.48;10.27;;;;;;;10.10;100.00;101726.78;2593965;36;20410;-54
2023/02/19 03:36:17;;;;;;;18.58;9.70;;;;;;;10.12;100.00;101734.75;2599576;36;20065;-54
2023/02/19 03:38:53;;;;;;;20.80;11.73;;;;;;;10.10;100.00;101739.34;2599744;36;20058;-55
2023/02/19 03:41:31;;;;;;;19.42;10.82;;;;;;;10.09;100.00;101741.19;2604551;36;20030;-55
2023/02/19 03:44:09;;;;;;;21.87;11.77;;;;;;;10.00;100.00;101739.19;2603076;36;20031;-54
2023/02/19 03:46:47;;;;;;;20.65;10.98;;;;;;;10.00;100.00;101741.88;2599423;36;20050;-55
2023/02/19 03:49:23;;;;;;;21.38;11.35;;;;;;;10.03;100.00;101747.03;2595600;36;20042;-56
2023/02/19 03:51:55;;;;;;;17.73;9.98;;;;;;;9.95;100.00;101746.69;2598155;36;20035;-54
2023/02/19 03:54:34;;;;;;;26.45;10.88;;;;;;;10.01;100.00;101759.69;2601267;36;20046;-58
2023/02/19 03:57:07;;;;;;;20.80;10.87;;;;;;;9.91;100.00;101764.91;2597853;36;20045;-53
2023/02/19 03:59:44;;;;;;;22.30;10.73;;;;;;;9.99;100.00;101762.50;2603457;36;20307;-56
2023/02/19 04:02:15;;;;;;;27.27;10.68;;;;;;;9.96;100.00;101760.03;2606216;36;20045;-56
2023/02/19 04:04:51;;;;;;;21.42;9.70;;;;;;;9.95;100.00;101770.91;2598533;36;20594;-57
2023/02/19 04:07:19;;;;;;;17.60;9.50;;;;;;;9.88;100.00;101769.63;2601926;36;20038;-55
2023/02/19 04:09:51;;;;;;;14.63;8.65;;;;;;;9.88;100.00;101772.31;2599232;31;20042;-55
2023/02/19 04:12:22;;;;;;;18.33;9.63;;;;;;;9.95;100.00;101770.91;2615915;36;20038;-56
2023/02/19 04:14:59;;;;;;;20.17;8.65;;;;;;;9.91;100.00;101777.47;2603683;36;20037;-52
2023/02/19 04:17:33;;;;;;;19.38;7.32;;;;;;;10.06;100.00;101779.06;2599433;36;20436;-56
2023/02/19 04:20:07;;;;;;;19.38;7.78;;;;;;;9.96;100.00;101783.38;2599501;36;20574;-55
2023/02/19 04:22:37;;;;;;;20.77;7.63;;;;;;;9.87;100.00;101784.06;2603299;36;20030;-57
2023/02/19 04:25:07;;;;;;;14.10;7.57;;;;;;;9.94;100.00;101788.03;2599334;36;20065;-55
2023/02/19 04:27:37;;;;;;;14.20;6.32;;;;;;;9.90;100.00;101791.91;2592901;36;21680;-54
2023/02/19 04:30:08;;;;;;;19.48;5.53;;;;;;;9.78;100.00;101791.78;2600280;36;20049;-54
2023/02/19 04:32:36;;;;;;;10.57;5.68;;;;;;;9.73;100.00;101799.34;2599190;36;20034;-55
2023/02/19 04:35:09;;;;;;;16.15;5.20;;;;;;;9.75;100.00;101808.13;2600717;36;20030;-53
2023/02/19 04:37:37;;;;;;;21.48;5.88;;;;;;;9.71;100.00;101809.31;2601966;36;20538;-53
2023/02/19 04:40:06;;;;;;;13.70;5.22;;;;;;;9.68;100.00;101812.22;2600589;36;20034;-56
2023/02/19 04:42:34;;;;;;;14.25;5.30;;;;;;;9.72;100.00;101824.47;2602854;36;20061;-58
2023/02/19 04:45:03;;;;;;;14.60;5.68;;;;;;;9.76;100.00;101830.50;2600383;31;20912;-57
2023/02/19 04:47:34;;;;;;;15.47;6.37;;;;;;;9.65;100.00;101836.63;2599484;36;21726;-55
2023/02/19 04:50:02;;;;;;;17.52;6.45;;;;;;;9.66;100.00;101835.66;2599542;36;20045;-55
2023/02/19 04:52:34;;;;;;;18.30;6.90;;;;;;;9.73;100.00;101847.72;2603214;36;20583;-51
2023/02/19 04:55:02;;;;;;;16.33;6.60;;;;;;;9.73;100.00;101853.09;2604106;36;20035;-54
2023/02/19 04:57:31;;;;;;;14.80;6.50;;;;;;;9.84;100.00;101846.13;2604659;36;20047;-56
2023/02/19 04:59:59;;;;;;;15.88;5.55;;;;;;;9.76;100.00;101839.44;2601338;36;20038;-56
2023/02/19 05:02:28;;;;;;;16.80;6.00;;;;;;;9.76;100.00;101855.56;2597723;36;20035;-55
2023/02/19 05:04:56;;;;;;;16.02;5.53;;;;;;;9.78;100.00;101855.47;2598366;36;20038;-58
2023/02/19 05:07:25;;;;;;;20.50;6.93;;;;;;;9.78;100.00;101860.84;2603521;36;20065;-55
2023/02/19 05:09:55;;;;;;;15.82;6.07;;;;;;;9.76;100.00;101860.94;2598234;36;20050;-54
2023/02/19 05:12:24;;;;;;;14.48;6.30;;;;;;;9.77;100.00;101865.34;2597068;36;20042;-57
2023/02/19 05:14:52;;;;;;;16.17;5.97;;;;;;;9.77;100.00;101859.09;2603574;36;20107;-56
2023/02/19 05:17:21;;;;;;;13.38;6.22;;;;;;;9.78;100.00;101867.06;2600498;36;20038;-56
2023/02/19 05:19:49;;;;;;;16.35;6.75;;;;;;;9.76;100.00;101874.38;2601363;36;20562;-59
2023/02/19 05:22:18;;;;;;;17.10;5.90;;;;;;;9.79;100.00;101873.28;2595961;36;20033;-57
2023/02/19 05:24:46;;;;;;;15.15;5.78;;;;;;;9.70;100.00;101869.44;2601092;36;20035;-53
2023/02/19 05:27:17;;;;;;;18.10;6.75;;;;;;;9.72;100.00;101878.25;2603340;36;20045;-53
2023/02/19 05:29:47;;;;;;;15.43;6.00;;;;;;;9.82;100.00;101886.56;2600745;31;20034;-55
2023/02/19 05:32:15;;;;;;;18.38;5.93;;;;;;;9.81;100.00;101885.69;2601358;31;20453;-56
2023/02/19 05:34:43;;;;;;;14.80;5.88;;;;;;;9.82;100.00;101884.72;2603888;36;20034;-56
2023/02/19 05:37:12;;;;;;;12.88;6.05;;;;;;;9.80;100.00;101886.66;2601869;36;20558;-53
2023/02/19 05:39:40;;;;;;;20.40;7.03;;;;;;;9.81;100.00;101884.81;2607159;36;20035;-55
2023/02/19 05:42:09;;;;;;;17.70;6.60;;;;;;;9.69;100.00;101885.66;2599098;36;20544;-54
2023/02/19 05:44:40;;;;;;;22.83;7.18;;;;;;;9.76;100.00;101882.47;2605023;36;20046;-53
2023/02/19 05:47:08;;;;;;;15.98;7.05;;;;;;;9.80;100.00;101892.03;2601004;36;20061;-55
2023/02/19 05:49:36;;;;;;;22.10;7.20;;;;;;;9.74;100.00;101881.69;2603413;36;20042;-55
2023/02/19 05:52:05;;;;;;;13.95;5.68;;;;;;;9.75;100.00;101891.47;2601856;36;20042;-55
2023/02/19 05:54:33;;;;;;;16.90;6.30;;;;;;;9.71;100.00;101900.72;2602046;36;20034;-56
2023/02/19 05:57:02;;;;;;;16.47;6.20;;;;;;;9.59;100.00;101898.88;2603320;36;20041;-58
2023/02/19 05:59:30;;;;;;;15.10;5.35;;;;;;;9.59;100.00;101902.41;2597084;36;20034;-56
2023/02/19 06:02:01;;;;;;;10.95;5.50;;;;;;;9.52;100.00;101911.84;2598165;36;20046;-54
2023/02/19 06:04:29;;;;;;;13.60;7.20;;;;;;;9.55;100.00;101908.09;2603250;36;20150;-55
2023/02/19 06:06:58;;;;;;;13.88;5.65;;;;;;;9.60;100.00;101914.03;2601858;36;20030;-57
2023/02/19 06:09:26;;;;;;;18.23;5.87;;;;;;;9.57;100.00;101914.22;2605700;36;20455;-56
2023/02/19 06:11:54;;;;;;;13.73;5.55;;;;;;;9.60;100.00;101922.09;2598488;36;20304;-54
2023/02/19 06:14:23;;;;;;;14.32;5.43;;;;;;;9.74;100.00;101930.06;2601934;31;20573;-55
2023/02/19 06:16:51;;;;;;;10.35;4.60;;;;;;;9.62;100.00;101933.59;2605843;36;21511;-57
2023/02/19 06:19:22;;;;;;;12.50;5.13;;;;;;;9.58;100.00;101940.16;2596627;36;20476;-55
2023/02/19 06:21:51;;;;;;;15.40;5.95;;;;;;;9.61;100.00;101932.75;2605354;36;20038;-54
2023/02/19 06:24:20;;;;;;;13.38;5.63;;;;;;;9.60;100.00;101943.63;2596775;36;20061;-54
2023/02/19 06:26:48;;;;;;;12.00;6.05;;;;;;;9.56;100.00;101952.84;2601372;36;20658;-54
2023/02/19 06:29:18;;;;;;;14.98;5.88;;;;;;;9.45;100.00;101950.84;2601878;31;20031;-56
2023/02/19 06:31:46;;;;;;;16.73;6.50;;;;;;;9.40;100.00;101964.59;2598545;36;20038;-53
2023/02/19 06:34:15;;;;;;;20.58;6.78;;;;;;;9.41;100.00;101960.94;2600277;36;20038;-56
2023/02/19 06:36:46;;;;;;;13.80;8.50;;;;;;;9.46;100.00;101948.06;2595930;36;20042;-56
2023/02/19 06:39:14;;;;;;;18.70;7.85;;;;;;;9.59;100.00;101958.84;2601606;36;20049;-55
2023/02/19 06:41:43;;;;;;;21.60;6.90;;;;;;;9.50;100.00;101959.47;2604606;36;20041;-56
2023/02/19 06:44:11;;;;;;;17.30;6.90;;;;;;;9.45;100.00;101972.34;2603386;36;20680;-55
2023/02/19 06:46:39;;;;;;;17.03;6.57;;;;;;;9.56;100.00;101969.81;2600626;36;20037;-56
2023/02/19 06:49:14;;;;;;;19.23;7.17;;;;;;;9.58;100.00;101969.72;2603185;36;20034;-56
2023/02/19 06:51:42;;;;;;;13.25;6.85;;;;;;;9.61;100.00;101975.75;2603814;36;20038;-51
2023/02/19 06:54:13;;;;;;;20.17;7.07;;;;;;;9.51;100.00;101987.19;2614571;36;20034;-56
2023/02/19 06:56:43;;;;;;;17.30;6.82;;;;;;;9.48;100.00;101982.88;2614221;36;20038;-55
2023/02/19 06:59:15;;;;;;;18.85;6.78;;;;;;;9.59;100.00;101990.25;2614730;36;20651;-52
2023/02/19 07:01:44;;;;;;;21.10;8.18;;;;;;;9.65;100.00;101993.38;2614782;36;20038;-56
2023/02/19 07:07:56;;;;;;;17.88;7.47;;;;;;;9.80;100.00;102004.09;2615965;54;20049;-56
2023/02/19 07:10:27;;;;;;;24.98;7.63;;;;;;;9.67;100.00;101993.28;2616543;36;20502;-56
2023/02/19 07:12:55;;;;;;;24.88;7.80;;;;;;;9.60;100.00;102021.56;2616503;36;20034;-56
2023/02/19 07:15:24;;;;;;;22.05;7.93;;;;;;;9.67;100.00;102024.69;2615543;36;20042;-56
2023/02/19 07:17:52;;;;;;;21.02;7.13;;;;;;;9.76;100.00;102019.56;2616164;36;20030;-49
2023/02/19 07:20:20;;;;;;;20.90;7.75;;;;;;;9.52;100.00;102026.56;2615987;36;20026;-52
2023/02/19 07:22:49;;;;;;;23.23;7.23;;;;;;;9.65;100.00;102035.53;2616140;36;20037;-54
2023/02/19 07:25:17;;;;;;;23.15;7.22;;;;;;;9.62;100.00;102036.59;2615686;36;20287;-57
2023/02/19 07:27:48;;;;;;;26.50;7.78;;;;;;;9.57;100.00;102046.81;2616164;36;20041;-56
2023/02/19 07:30:16;;;;;;;23.42;7.32;;;;;;;9.63;100.00;102045.53;2616857;36;20419;-54
2023/02/19 07:32:45;;;;;;;26.13;7.93;;;;;;;9.61;100.00;102047.47;2616310;36;20038;-54
2023/02/19 07:35:13;;;;;;;20.35;7.07;;;;;;;9.63;100.00;102041.03;2615942;36;20661;-54
2023/02/19 07:37:42;;;;;;;23.58;7.40;;;;;;;9.74;100.00;102056.44;2615069;36;20042;-55
2023/02/19 07:40:11;;;;;;;31.52;10.65;;;;;;;9.75;100.00;102058.16;2615807;31;20041;-58
2023/02/19 07:42:39;;;;;;;16.67;6.68;;;;;;;9.68;100.00;102056.00;2615705;36;20106;-50
2023/02/19 07:45:11;;;;;;;19.02;7.18;;;;;;;9.69;100.00;102055.91;2615977;36;20030;-55
2023/02/19 07:47:39;;;;;;;25.00;7.20;;;;;;;9.75;100.00;102062.69;2615448;36;20023;-56
2023/02/19 07:50:08;;;;;;;20.33;6.82;;;;;;;9.68;100.00;102066.75;2615213;36;20045;-55
2023/02/19 07:52:37;;;;;;;23.65;7.47;;;;;;;9.69;100.00;102061.28;2615880;31;20034;-57
2023/02/19 07:55:06;;;;;;;18.88;6.22;;;;;;;9.67;100.00;102068.56;2616053;31;20440;-55
2023/02/19 07:57:34;;;;;;;18.23;6.72;;;;;;;9.75;100.00;102071.63;2614981;36;20420;-54
2023/02/19 08:00:03;;;;;;;16.10;6.55;;;;;;;9.77;100.00;102069.66;2613403;36;20033;-55
2023/02/19 08:05:17;;;;;;;17.73;7.18;;;;;;;9.70;100.00;102080.94;2615182;36;20027;-58
2023/02/19 08:07:45;;;;;;;13.40;6.27;;;;;;;9.70;100.00;102087.19;2615135;36;20865;-56
2023/02/19 08:15:44;;;;;;;17.80;6.55;;;;;;;9.74;100.00;102112.03;2616170;36;20043;-54
2023/02/19 08:18:16;;;;;;;11.50;6.00;;;;;;;9.48;100.00;102114.56;2615963;36;20026;-54
2023/02/19 08:20:45;;;;;;;17.40;5.95;;;;;;;9.42;100.00;102118.53;2615646;36;20034;-57
2023/02/19 08:23:14;;;;;;;16.00;6.38;;;;;;;9.50;100.00;102122.56;2616022;31;20034;-54
2023/02/19 08:25:43;;;;;;;12.38;5.28;;;;;;;9.44;100.00;102135.41;2616378;36;20439;-55
2023/02/19 08:28:12;;;;;;;13.45;5.53;;;;;;;9.51;100.00;102138.59;2613739;36;20045;-55
2023/02/19 08:30:44;;;;;;;12.80;5.20;;;;;;;9.51;100.00;102145.78;2615637;36;20428;-56
2023/02/19 08:33:17;;;;;;;13.23;5.32;;;;;;;9.57;100.00;102146.25;2615502;36;20038;-56
2023/02/19 08:35:46;;;;;;;11.60;5.35;;;;;;;9.58;100.00;102145.28;2616214;36;20459;-56
2023/02/19 08:38:15;;;;;;;12.15;5.43;;;;;;;9.68;100.00;102160.84;2615459;36;20034;-55
2023/02/19 08:40:44;;;;;;;15.15;5.32;;;;;;;9.75;100.00;102162.19;2615932;36;20046;-55
2023/02/19 08:43:14;;;;;;;16.55;6.13;;;;;;;9.61;100.00;102152.28;2615360;36;20039;-55
2023/02/19 08:45:46;;;;;;;16.45;5.22;;;;;;;9.76;100.00;102158.50;2616010;36;20046;-57
2023/02/19 08:48:16;;;;;;;13.40;5.65;;;;;;;9.91;100.00;102153.94;2615795;36;20046;-56
2023/02/19 08:50:45;;;;;;;13.32;5.43;;;;;;;9.84;100.00;102147.28;2610370;36;20039;-56
2023/02/19 08:53:13;;;;;;;9.55;4.75;;;;;;;9.97;100.00;102145.50;2596229;36;20050;-55
2023/02/19 08:55:41;;;;;;;11.50;4.63;;;;;;;9.81;100.00;102156.41;2600182;36;20039;-55
2023/02/19 08:58:12;;;;;;;11.85;5.30;;;;;;;10.00;100.00;102162.28;2605119;36;20046;-56
2023/02/19 09:00:40;;;;;;;10.95;4.97;;;;;;;9.99;100.00;102165.09;2597844;36;20123;-56
2023/02/19 09:03:08;;;;;;;9.18;4.30;;;;;;;9.80;100.00;102166.31;2603687;36;21736;-56
2023/02/19 09:05:40;;;;;;;7.63;3.13;;;;;;;9.68;100.00;102172.44;2601606;36;20062;-57
2023/02/19 09:08:08;;;;;;;9.15;3.10;;;;;;;9.65;100.00;102181.56;2598633;36;20169;-56
2023/02/19 09:10:37;;;;;;;6.85;3.03;;;;;;;9.79;100.00;102191.44;2598616;36;20050;-56
2023/02/19 09:13:05;;;;;;;5.07;2.90;;;;;;;9.84;100.00;102193.00;2601011;36;20034;-56
2023/02/19 09:15:33;;;;;;;6.72;3.17;;;;;;;9.90;100.00;102193.44;2597752;36;20479;-58
2023/02/19 09:18:02;;;;;;;5.95;2.80;;;;;;;9.84;100.00;102193.00;2596988;31;20049;-56
2023/02/19 09:20:30;;;;;;;7.47;3.37;;;;;;;9.86;100.00;102201.81;2602169;31;20042;-56
2023/02/19 09:23:02;;;;;;;8.98;3.20;;;;;;;9.76;100.00;102213.16;2603006;31;20693;-58
2023/02/19 09:25:30;;;;;;;12.88;6.32;;;;;;;9.36;100.00;102217.47;2602506;36;20617;-56
2023/02/19 09:27:59;;;;;;;10.80;5.93;;;;;;;9.57;100.00;102216.16;2600813;36;20049;-56
2023/02/19 09:30:27;;;;;;;9.35;5.53;;;;;;;9.50;100.00;102222.00;2599856;31;21601;-57
2023/02/19 09:32:56;;;;;;;10.43;5.55;;;;;;;9.61;100.00;102247.25;2605207;36;20247;-58
2023/02/19 09:35:26;;;;;;;7.03;2.72;;;;;;;9.45;100.00;102258.09;2600672;36;20037;-56
2023/02/19 09:37:54;;;;;;;6.28;2.55;;;;;;;9.40;100.00;102254.81;2608566;36;20030;-57
2023/02/19 09:40:25;;;;;;;5.88;2.60;;;;;;;9.52;100.00;102255.00;2624949;36;20066;-53
2023/02/19 09:42:54;;;;;;;5.13;2.20;;;;;;;9.49;100.00;102252.53;2602927;36;20546;-56
2023/02/19 09:45:26;;;;;;;6.73;3.83;;;;;;;9.65;100.00;102264.03;2605515;36;20023;-57
2023/02/19 09:47:57;;;;;;;6.10;3.40;;;;;;;9.60;100.00;102263.47;2603104;31;20066;-57
2023/02/19 09:50:36;;;;;;;8.48;5.78;;;;;;;9.38;100.00;102271.97;2600762;36;20030;-57
2023/02/19 09:53:08;;;;;;;9.90;5.13;;;;;;;9.39;100.00;102274.59;2617012;36;20035;-57
2023/02/19 09:55:44;;;;;;;5.85;2.80;;;;;;;9.24;100.00;102287.09;2607712;31;20041;-57
2023/02/19 09:58:24;;;;;;;4.72;2.30;;;;;;;9.36;100.00;102284.66;2603768;31;20042;-56
2023/02/19 10:00:56;;;;;;;3.55;2.08;;;;;;;9.27;100.00;102296.81;2599676;36;20034;-55
2023/02/19 10:03:30;;;;;;;5.93;2.42;;;;;;;8.94;100.00;102308.63;2603316;31;20034;-58
2023/02/19 10:06:00;;;;;;;4.53;2.25;;;;;;;9.30;100.00;102312.75;2599492;36;20049;-54
2023/02/19 10:08:29;;;;;;;4.15;2.22;;;;;;;9.12;100.00;102329.00;2605174;36;20046;-58
2023/02/19 10:11:01;;;;;;;4.07;2.72;;;;;;;9.30;100.00;102334.25;2607613;36;20066;-55
2023/02/19 10:13:34;;;;;;;4.57;2.40;;;;;;;9.13;100.00;102332.56;2603998;36;20045;-55
2023/02/19 10:16:05;;;;;;;4.05;2.08;;;;;;;9.10;100.00;102341.66;2604501;31;20030;-57
2023/02/19 10:18:41;;;;;;;3.60;2.03;;;;;;;9.14;100.00;102338.78;2606232;36;20878;-56
2023/02/19 10:21:13;;;;;;;4.60;2.10;;;;;;;9.19;100.00;102352.84;2600676;36;20093;-52
2023/02/19 10:23:43;;;;;;;5.05;2.60;;;;;;;8.93;100.00;102361.44;2603677;36;20531;-54
2023/02/19 10:26:14;;;;;;;5.03;2.28;;;;;;;8.94;100.00;102367.69;2609117;36;20031;-54
2023/02/19 10:28:42;;;;;;;5.13;2.60;;;;;;;9.07;100.00;102365.16;2602910;36;20061;-56
2023/02/19 10:31:18;;;;;;;4.38;2.40;;;;;;;8.86;100.00;102373.50;2602005;36;20049;-56
2023/02/19 10:33:54;;;;;;;5.80;2.65;;;;;;;8.48;100.00;102372.97;2597026;36;20038;-56
2023/02/19 10:36:29;;;;;;;5.82;3.45;;;;;;;8.44;100.00;102376.75;2604027;36;20546;-54
2023/02/19 10:38:58;;;;;;;5.00;2.58;;;;;;;8.44;100.00;102371.38;2600353;36;20055;-56
2023/02/19 10:41:30;;;;;;;;;;;;;;;8.53;100.00;102377.13;2606623;36;20041;-55
2023/02/19 10:44:07;;;;;;;4.97;2.58;;;;;;;8.75;100.00;102375.94;2604940;36;19997;-57
2023/02/19 10:46:42;;;;;;;6.05;2.92;;;;;;;8.57;100.00;102377.84;2604224;36;20133;-55
2023/02/19 10:49:24;;;;;;;3.88;2.30;;;;;;;8.65;100.00;102370.19;2604415;36;20042;-56
2023/02/19 10:51:54;;;;;;;3.92;2.58;;;;;;;8.73;100.00;102367.97;2605919;36;20130;-53
2023/02/19 10:54:30;;;;;;;3.80;2.00;;;;;;;9.09;100.00;102371.31;2604335;36;20037;-56
2023/02/19 10:57:24;;;;;;;3.80;2.00;;;;;;;8.95;100.00;102364.03;2599331;36;20042;-57
2023/02/19 11:00:00;;;;;;;3.78;2.20;;;;;;;8.77;100.00;102369.53;2598769;36;20566;-56
2023/02/19 11:02:30;;;;;;;4.82;2.13;;;;;;;8.67;100.00;102372.81;2599589;36;20035;-53
2023/02/19 11:05:13;;;;;;;5.88;3.10;;;;;;;8.32;100.00;102376.47;2599535;36;20038;-57
2023/02/19 11:07:46;;;;;;;6.95;4.13;;;;;;;8.46;100.00;102375.72;2603133;36;20090;-54
2023/02/19 11:10:28;;;;;;;3.78;2.40;;;;;;;8.45;100.00;102386.53;2606859;36;20043;-56
2023/02/19 11:13:01;;;;;;;2.72;1.58;;;;;;;8.56;100.00;102386.81;2602813;36;20041;-57
2023/02/19 11:15:32;;;;;;;2.72;1.75;;;;;;;8.57;100.00;102385.88;2603167;36;20054;-57
2023/02/19 11:18:12;;;;;;;2.72;1.70;;;;;;;8.82;100.00;102392.53;2601489;36;20034;-56
2023/02/19 11:20:41;;;;;;;;;;;;;;;9.12;100.00;102400.66;2602699;36;21763;-56
2023/02/19 11:23:15;;;;;;;;;;;;;;;9.42;100.00;102403.41;2596932;36;19943;-54
2023/02/19 11:25:51;;;;;;;5.13;1.90;;;;;;;9.14;100.00;102398.75;2595626;36;20026;-57
2023/02/19 11:28:32;;;;;;;2.95;1.98;;;;;;;9.31;100.00;102394.25;2603369;36;20053;-55
2023/02/19 11:31:24;;;;;;;2.72;1.70;;;;;;;9.00;100.00;102396.00;2601700;36;20038;-57
2023/02/19 11:33:57;;;;;;;4.30;2.40;;;;;;;9.01;100.00;102398.63;2615988;36;20034;-53
2023/02/19 11:36:31;;;;;;;4.00;2.13;;;;;;;9.03;100.00;102403.91;2606517;36;20086;-57
2023/02/19 11:39:04;;;;;;;5.25;2.65;;;;;;;9.40;100.00;102404.44;2604950;36;20049;-57
2023/02/19 11:41:52;;;;;;;2.95;1.73;;;;;;;9.32;100.00;102398.63;2604144;36;20045;-54
2023/02/19 11:44:40;;;;;;;2.72;1.92;;;;;;;9.28;100.00;102411.41;2605216;31;20132;-57
2023/02/19 11:47:33;;;;;;;2.33;1.27;;;;;;;9.08;100.00;102415.22;2600409;31;20065;-57
2023/02/19 11:50:11;;;;;;;2.33;1.55;;;;;;;9.08;100.00;102401.78;2600511;36;20045;-57
2023/02/19 11:52:48;;;;;;;9.57;4.35;;;;;;;9.19;100.00;102395.81;2599525;36;20038;-54
2023/02/19 11:55:22;;;;;;;13.48;6.35;;;;;;;9.25;100.00;102395.47;2599686;36;20444;-57
2023/02/19 11:58:02;;;;;;;14.70;7.47;;;;;;;8.88;100.00;102392.22;2595897;36;20043;-55
2023/02/19 12:00:41;;;;;;;9.35;5.05;;;;;;;9.10;100.00;102403.44;2599404;36;20459;-56
2023/02/19 12:03:27;;;;;;;5.53;3.03;;;;;;;8.79;100.00;102403.44;2593173;36;20041;-59
2023/02/19 12:06:20;;;;;;;3.80;2.03;;;;;;;8.80;100.00;102403.38;2598279;36;20046;-55
2023/02/19 12:09:11;;;;;;;2.78;1.90;;;;;;;9.18;100.00;102394.94;2597018;36;20038;-57